sensor_id;sensor_type;location;lat;lon;timestamp;P1;durP1;ratioP1;P2;durP2;ratioP2
69034;SDS011;56091;55.756;37.412;2023-02-19T00:03:05;13.30;;;5.77;;
69034;SDS011;56091;55.756;37.412;2023-02-19T00:08:06;18.20;;;6.67;;
69034;SDS011;56091;55.756;37.412;2023-02-19T00:13:07;14.48;;;5.63;;
69034;SDS011;56091;55.756;37.412;2023-02-19T00:18:10;22.40;;;6.60;;
69034;SDS011;56091;55.756;37.412;2023-02-19T00:23:11;16.90;;;6.00;;
69034;SDS011;56091;55.756;37.412;2023-02-19T00:28:12;16.63;;;7.28;;
69034;SDS011;56091;55.756;37.412;2023-02-19T00:33:12;18.83;;;6.40;;
69034;SDS011;56091;55.756;37.412;2023-02-19T00:38:14;19.67;;;5.57;;
69034;SDS011;56091;55.756;37.412;2023-02-19T00:43:15;21.50;;;6.90;;
69034;SDS011;56091;55.756;37.412;2023-02-19T00:48:16;16.67;;;6.10;;
69034;SDS011;56091;55.756;37.412;2023-02-19T00:53:19;20.10;;;7.45;;
69034;SDS011;56091;55.756;37.412;2023-02-19T00:58:21;18.93;;;7.30;;
69034;SDS011;56091;55.756;37.412;2023-02-19T01:03:25;20.25;;;7.20;;
69034;SDS011;56091;55.756;37.412;2023-02-19T01:08:25;21.23;;;7.03;;
69034;SDS011;56091;55.756;37.412;2023-02-19T01:13:27;17.92;;;6.60;;
69034;SDS011;56091;55.756;37.412;2023-02-19T01:18:29;20.37;;;6.57;;
69034;SDS011;56091;55.756;37.412;2023-02-19T01:23:30;20.67;;;7.43;;
69034;SDS011;56091;55.756;37.412;2023-02-19T01:28:31;18.67;;;7.17;;
69034;SDS011;56091;55.756;37.412;2023-02-19T01:33:32;23.30;;;7.80;;
69034;SDS011;56091;55.756;37.412;2023-02-19T01:38:33;21.33;;;8.40;;
69034;SDS011;56091;55.756;37.412;2023-02-19T01:43:52;19.40;;;7.13;;
69034;SDS011;56091;55.756;37.412;2023-02-19T01:48:57;20.10;;;7.35;;
69034;SDS011;56091;55.756;37.412;2023-02-19T01:54:03;21.80;;;8.73;;
69034;SDS011;56091;55.756;37.412;2023-02-19T01:59:06;24.95;;;8.60;;
69034;SDS011;56091;55.756;37.412;2023-02-19T02:04:10;23.17;;;8.27;;
69034;SDS011;56091;55.756;37.412;2023-02-19T02:09:13;25.60;;;8.32;;
69034;SDS011;56091;55.756;37.412;2023-02-19T02:14:33;25.23;;;8.30;;
69034;SDS011;56091;55.756;37.412;2023-02-19T02:36:19;17.27;;;7.07;;
69034;SDS011;56091;55.756;37.412;2023-02-19T02:41:24;21.85;;;7.60;;
69034;SDS011;56091;55.756;37.412;2023-02-19T02:46:31;20.43;;;7.10;;
69034;SDS011;56091;55.756;37.412;2023-02-19T02:51:39;18.58;;;7.05;;
69034;SDS011;56091;55.756;37.412;2023-02-19T02:56:54;21.00;;;7.60;;
69034;SDS011;56091;55.756;37.412;2023-02-19T03:02:04;19.42;;;7.40;;
69034;SDS011;56091;55.756;37.412;2023-02-19T03:07:10;19.73;;;6.47;;
69034;SDS011;56091;55.756;37.412;2023-02-19T03:12:13;18.45;;;7.28;;
69034;SDS011;56091;55.756;37.412;2023-02-19T03:17:41;19.60;;;7.80;;
69034;SDS011;56091;55.756;37.412;2023-02-19T03:23:06;20.65;;;7.65;;
69034;SDS011;56091;55.756;37.412;2023-02-19T03:28:09;16.80;;;6.90;;
69034;SDS011;56091;55.756;37.412;2023-02-19T03:33:18;20.02;;;7.22;;
69034;SDS011;56091;55.756;37.412;2023-02-19T03:43:40;20.73;;;8.18;;
69034;SDS011;56091;55.756;37.412;2023-02-19T03:49:00;12.50;;;5.10;;
69034;SDS011;56091;55.756;37.412;2023-02-19T03:54:27;21.65;;;7.30;;
69034;SDS011;56091;55.756;37.412;2023-02-19T03:59:42;17.10;;;6.83;;
69034;SDS011;56091;55.756;37.412;2023-02-19T04:04:53;18.65;;;7.30;;
69034;SDS011;56091;55.756;37.412;2023-02-19T04:10:20;19.10;;;7.30;;
69034;SDS011;56091;55.756;37.412;2023-02-19T04:15:26;20.25;;;6.97;;
69034;SDS011;56091;55.756;37.412;2023-02-19T04:20:33;17.43;;;5.77;;
69034;SDS011;56091;55.756;37.412;2023-02-19T04:25:38;23.50;;;7.75;;
69034;SDS011;56091;55.756;37.412;2023-02-19T04:30:43;22.13;;;7.23;;
69034;SDS011;56091;55.756;37.412;2023-02-19T04:35:44;18.75;;;7.22;;
69034;SDS011;56091;55.756;37.412;2023-02-19T04:40:46;18.30;;;6.77;;
69034;SDS011;56091;55.756;37.412;2023-02-19T04:45:50;35.88;;;8.15;;
69034;SDS011;56091;55.756;37.412;2023-02-19T04:50:51;25.63;;;7.43;;
69034;SDS011;56091;55.756;37.412;2023-02-19T04:55:52;19.43;;;6.20;;
69034;SDS011;56091;55.756;37.412;2023-02-19T05:00:52;21.23;;;7.25;;
69034;SDS011;56091;55.756;37.412;2023-02-19T05:05:53;19.03;;;6.50;;
69034;SDS011;56091;55.756;37.412;2023-02-19T05:10:57;16.80;;;6.75;;
69034;SDS011;56091;55.756;37.412;2023-02-19T05:16:04;17.00;;;6.30;;
69034;SDS011;56091;55.756;37.412;2023-02-19T05:21:21;17.73;;;7.03;;
69034;SDS011;56091;55.756;37.412;2023-02-19T05:26:22;17.67;;;6.20;;
69034;SDS011;56091;55.756;37.412;2023-02-19T05:31:23;19.35;;;6.60;;
69034;SDS011;56091;55.756;37.412;2023-02-19T05:36:24;19.93;;;7.10;;
69034;SDS011;56091;55.756;37.412;2023-02-19T05:41:28;16.33;;;6.33;;
69034;SDS011;56091;55.756;37.412;2023-02-19T05:46:29;22.20;;;7.15;;
69034;SDS011;56091;55.756;37.412;2023-02-19T05:51:30;24.20;;;6.80;;
69034;SDS011;56091;55.756;37.412;2023-02-19T05:56:32;15.52;;;6.20;;
69034;SDS011;56091;55.756;37.412;2023-02-19T06:01:40;17.40;;;6.27;;
69034;SDS011;56091;55.756;37.412;2023-02-19T06:06:41;15.07;;;5.82;;
69034;SDS011;56091;55.756;37.412;2023-02-19T06:11:42;17.43;;;6.50;;
69034;SDS011;56091;55.756;37.412;2023-02-19T06:16:44;16.30;;;5.57;;
69034;SDS011;56091;55.756;37.412;2023-02-19T06:21:49;14.47;;;5.53;;
69034;SDS011;56091;55.756;37.412;2023-02-19T06:26:50;15.65;;;6.20;;
69034;SDS011;56091;55.756;37.412;2023-02-19T06:31:51;15.43;;;6.10;;
69034;SDS011;56091;55.756;37.412;2023-02-19T06:36:51;15.32;;;5.60;;
69034;SDS011;56091;55.756;37.412;2023-02-19T06:41:56;17.95;;;6.53;;
69034;SDS011;56091;55.756;37.412;2023-02-19T06:46:58;14.93;;;5.87;;
69034;SDS011;56091;55.756;37.412;2023-02-19T06:52:04;14.05;;;5.47;;
69034;SDS011;56091;55.756;37.412;2023-02-19T06:57:05;17.47;;;5.87;;
69034;SDS011;56091;55.756;37.412;2023-02-19T07:02:06;18.90;;;5.93;;
69034;SDS011;56091;55.756;37.412;2023-02-19T07:07:09;16.67;;;6.20;;
69034;SDS011;56091;55.756;37.412;2023-02-19T07:12:11;14.93;;;5.90;;
69034;SDS011;56091;55.756;37.412;2023-02-19T07:17:12;17.03;;;6.27;;
69034;SDS011;56091;55.756;37.412;2023-02-19T07:22:13;15.73;;;5.90;;
69034;SDS011;56091;55.756;37.412;2023-02-19T07:27:14;17.55;;;5.53;;
69034;SDS011;56091;55.756;37.412;2023-02-19T07:32:14;14.67;;;6.00;;
69034;SDS011;56091;55.756;37.412;2023-02-19T07:37:15;36.13;;;12.93;;
69034;SDS011;56091;55.756;37.412;2023-02-19T07:42:16;17.27;;;7.30;;
69034;SDS011;56091;55.756;37.412;2023-02-19T07:47:17;23.70;;;9.32;;
69034;SDS011;56091;55.756;37.412;2023-02-19T07:52:18;16.67;;;6.77;;
69034;SDS011;56091;55.756;37.412;2023-02-19T07:57:18;16.37;;;6.17;;
69034;SDS011;56091;55.756;37.412;2023-02-19T08:02:22;16.13;;;6.90;;
69034;SDS011;56091;55.756;37.412;2023-02-19T08:07:42;15.53;;;5.60;;
69034;SDS011;56091;55.756;37.412;2023-02-19T08:12:42;16.13;;;6.50;;
69034;SDS011;56091;55.756;37.412;2023-02-19T08:18:02;16.60;;;6.10;;
69034;SDS011;56091;55.756;37.412;2023-02-19T08:23:03;15.25;;;6.03;;
69034;SDS011;56091;55.756;37.412;2023-02-19T08:28:04;17.58;;;6.88;;
69034;SDS011;56091;55.756;37.412;2023-02-19T08:33:06;15.48;;;6.32;;
69034;SDS011;56091;55.756;37.412;2023-02-19T08:38:08;16.80;;;6.30;;
69034;SDS011;56091;55.756;37.412;2023-02-19T08:43:11;18.75;;;6.50;;
69034;SDS011;56091;55.756;37.412;2023-02-19T08:48:14;13.88;;;5.40;;
69034;SDS011;56091;55.756;37.412;2023-02-19T08:53:15;16.33;;;6.33;;
69034;SDS011;56091;55.756;37.412;2023-02-19T08:58:16;16.52;;;6.43;;
69034;SDS011;56091;55.756;37.412;2023-02-19T09:03:17;15.23;;;5.70;;
69034;SDS011;56091;55.756;37.412;2023-02-19T09:08:18;14.85;;;6.03;;
69034;SDS011;56091;55.756;37.412;2023-02-19T09:13:19;12.73;;;5.55;;
69034;SDS011;56091;55.756;37.412;2023-02-19T09:18:19;15.93;;;6.00;;
69034;SDS011;56091;55.756;37.412;2023-02-19T09:23:20;14.52;;;6.28;;
69034;SDS011;56091;55.756;37.412;2023-02-19T09:28:23;15.57;;;6.22;;
69034;SDS011;56091;55.756;37.412;2023-02-19T09:33:37;13.68;;;5.63;;
69034;SDS011;56091;55.756;37.412;2023-02-19T09:38:37;15.25;;;6.05;;
69034;SDS011;56091;55.756;37.412;2023-02-19T09:43:42;16.75;;;7.03;;
69034;SDS011;56091;55.756;37.412;2023-02-19T09:48:43;20.50;;;7.45;;
69034;SDS011;56091;55.756;37.412;2023-02-19T09:53:44;17.70;;;6.83;;
69034;SDS011;56091;55.756;37.412;2023-02-19T09:58:49;15.23;;;6.35;;
69034;SDS011;56091;55.756;37.412;2023-02-19T10:03:53;18.00;;;7.20;;
69034;SDS011;56091;55.756;37.412;2023-02-19T10:19:35;16.88;;;6.38;;
69034;SDS011;56091;55.756;37.412;2023-02-19T10:24:37;19.33;;;6.70;;
69034;SDS011;56091;55.756;37.412;2023-02-19T10:29:45;18.00;;;6.35;;
69034;SDS011;56091;55.756;37.412;2023-02-19T10:40:20;15.73;;;6.82;;
69034;SDS011;56091;55.756;37.412;2023-02-19T10:45:33;14.60;;;6.17;;
69034;SDS011;56091;55.756;37.412;2023-02-19T10:50:38;16.63;;;6.55;;
69034;SDS011;56091;55.756;37.412;2023-02-19T10:55:46;16.27;;;6.20;;
69034;SDS011;56091;55.756;37.412;2023-02-19T11:00:50;18.60;;;7.45;;
69034;SDS011;56091;55.756;37.412;2023-02-19T11:06:14;16.98;;;6.82;;
69034;SDS011;56091;55.756;37.412;2023-02-19T11:11:27;19.63;;;7.05;;
69034;SDS011;56091;55.756;37.412;2023-02-19T11:16:40;18.95;;;7.22;;
69034;SDS011;56091;55.756;37.412;2023-02-19T11:21:44;17.77;;;6.78;;
69034;SDS011;56091;55.756;37.412;2023-02-19T11:26:45;17.20;;;7.10;;
69034;SDS011;56091;55.756;37.412;2023-02-19T11:31:46;18.17;;;7.03;;
69034;SDS011;56091;55.756;37.412;2023-02-19T11:36:47;18.02;;;6.70;;
69034;SDS011;56091;55.756;37.412;2023-02-19T11:42:12;18.30;;;7.38;;
69034;SDS011;56091;55.756;37.412;2023-02-19T12:03:42;20.52;;;7.28;;
69034;SDS011;56091;55.756;37.412;2023-02-19T12:20:05;15.23;;;6.22;;
69034;SDS011;56091;55.756;37.412;2023-02-19T12:41:28;19.23;;;7.38;;
69034;SDS011;56091;55.756;37.412;2023-02-19T12:46:50;17.98;;;7.07;;
69034;SDS011;56091;55.756;37.412;2023-02-19T12:52:00;18.38;;;7.13;;
69034;SDS011;56091;55.756;37.412;2023-02-19T13:02:12;17.50;;;7.32;;
69034;SDS011;56091;55.756;37.412;2023-02-19T13:07:35;16.17;;;6.73;;
69034;SDS011;56091;55.756;37.412;2023-02-19T13:12:44;18.67;;;7.85;;
69034;SDS011;56091;55.756;37.412;2023-02-19T13:17:54;20.00;;;7.50;;
69034;SDS011;56091;55.756;37.412;2023-02-19T13:39:03;17.53;;;7.00;;
69034;SDS011;56091;55.756;37.412;2023-02-19T13:44:06;22.63;;;8.20;;
69034;SDS011;56091;55.756;37.412;2023-02-19T13:59:40;19.87;;;8.27;;
69034;SDS011;56091;55.756;37.412;2023-02-19T14:09:52;20.77;;;8.50;;
69034;SDS011;56091;55.756;37.412;2023-02-19T14:14:53;19.40;;;8.43;;
69034;SDS011;56091;55.756;37.412;2023-02-19T14:20:01;19.63;;;8.33;;
69034;SDS011;56091;55.756;37.412;2023-02-19T14:25:05;19.08;;;7.78;;
69034;SDS011;56091;55.756;37.412;2023-02-19T14:30:14;21.50;;;7.80;;
69034;SDS011;56091;55.756;37.412;2023-02-19T14:35:19;23.88;;;8.45;;
69034;SDS011;56091;55.756;37.412;2023-02-19T14:40:22;21.20;;;8.20;;
69034;SDS011;56091;55.756;37.412;2023-02-19T14:45:36;26.20;;;9.50;;
69034;SDS011;56091;55.756;37.412;2023-02-19T14:50:45;19.97;;;7.80;;
69034;SDS011;56091;55.756;37.412;2023-02-19T14:55:49;19.92;;;8.02;;
69034;SDS011;56091;55.756;37.412;2023-02-19T15:00:52;19.13;;;7.10;;
69034;SDS011;56091;55.756;37.412;2023-02-19T15:05:53;23.13;;;7.93;;
69034;SDS011;56091;55.756;37.412;2023-02-19T15:10:58;22.70;;;8.40;;
69034;SDS011;56091;55.756;37.412;2023-02-19T15:16:00;20.03;;;8.00;;
69034;SDS011;56091;55.756;37.412;2023-02-19T15:21:02;23.27;;;9.02;;
69034;SDS011;56091;55.756;37.412;2023-02-19T15:26:11;22.57;;;8.73;;
69034;SDS011;56091;55.756;37.412;2023-02-19T15:31:20;26.23;;;9.40;;
69034;SDS011;56091;55.756;37.412;2023-02-19T15:36:28;31.43;;;9.70;;
69034;SDS011;56091;55.756;37.412;2023-02-19T15:41:32;28.58;;;10.32;;
69034;SDS011;56091;55.756;37.412;2023-02-19T15:46:37;28.37;;;9.40;;
69034;SDS011;56091;55.756;37.412;2023-02-19T15:51:46;26.80;;;10.73;;
69034;SDS011;56091;55.756;37.412;2023-02-19T15:56:49;23.50;;;8.77;;
69034;SDS011;56091;55.756;37.412;2023-02-19T16:01:50;25.50;;;10.30;;
69034;SDS011;56091;55.756;37.412;2023-02-19T16:06:57;26.30;;;9.40;;
69034;SDS011;56091;55.756;37.412;2023-02-19T16:12:02;25.10;;;8.82;;
69034;SDS011;56091;55.756;37.412;2023-02-19T16:17:19;22.73;;;9.03;;
69034;SDS011;56091;55.756;37.412;2023-02-19T16:22:23;25.40;;;9.25;;
69034;SDS011;56091;55.756;37.412;2023-02-19T16:32:30;26.45;;;10.50;;
69034;SDS011;56091;55.756;37.412;2023-02-19T16:37:40;25.70;;;9.60;;
69034;SDS011;56091;55.756;37.412;2023-02-19T16:48:06;25.33;;;9.47;;
69034;SDS011;56091;55.756;37.412;2023-02-19T16:53:23;23.48;;;9.88;;
69034;SDS011;56091;55.756;37.412;2023-02-19T16:58:24;26.47;;;10.33;;
69034;SDS011;56091;55.756;37.412;2023-02-19T17:03:29;22.23;;;9.38;;
69034;SDS011;56091;55.756;37.412;2023-02-19T17:08:34;27.63;;;10.33;;
69034;SDS011;56091;55.756;37.412;2023-02-19T17:13:43;27.83;;;9.82;;
69034;SDS011;56091;55.756;37.412;2023-02-19T17:18:46;27.80;;;10.13;;
69034;SDS011;56091;55.756;37.412;2023-02-19T17:23:47;25.52;;;10.07;;
69034;SDS011;56091;55.756;37.412;2023-02-19T17:28:49;28.80;;;9.57;;
69034;SDS011;56091;55.756;37.412;2023-02-19T17:33:50;26.13;;;10.00;;
69034;SDS011;56091;55.756;37.412;2023-02-19T17:39:01;26.33;;;10.30;;
69034;SDS011;56091;55.756;37.412;2023-02-19T17:44:02;26.75;;;10.00;;
69034;SDS011;56091;55.756;37.412;2023-02-19T17:49:03;30.10;;;9.60;;
69034;SDS011;56091;55.756;37.412;2023-02-19T17:54:04;33.85;;;10.57;;
69034;SDS011;56091;55.756;37.412;2023-02-19T17:59:04;27.93;;;10.37;;
69034;SDS011;56091;55.756;37.412;2023-02-19T18:04:05;29.10;;;11.07;;
69034;SDS011;56091;55.756;37.412;2023-02-19T18:09:06;33.33;;;10.73;;
69034;SDS011;56091;55.756;37.412;2023-02-19T18:14:07;29.63;;;11.47;;
69034;SDS011;56091;55.756;37.412;2023-02-19T18:19:08;28.80;;;11.13;;
69034;SDS011;56091;55.756;37.412;2023-02-19T18:24:09;33.40;;;11.47;;
69034;SDS011;56091;55.756;37.412;2023-02-19T18:29:10;32.30;;;11.55;;
69034;SDS011;56091;55.756;37.412;2023-02-19T18:34:16;25.23;;;9.93;;
69034;SDS011;56091;55.756;37.412;2023-02-19T18:39:18;30.80;;;11.50;;
69034;SDS011;56091;55.756;37.412;2023-02-19T18:44:20;26.47;;;10.93;;
69034;SDS011;56091;55.756;37.412;2023-02-19T18:49:22;29.60;;;10.60;;
69034;SDS011;56091;55.756;37.412;2023-02-19T18:54:23;31.27;;;10.50;;
69034;SDS011;56091;55.756;37.412;2023-02-19T18:59:25;30.67;;;11.20;;
69034;SDS011;56091;55.756;37.412;2023-02-19T19:04:26;30.67;;;11.00;;
69034;SDS011;56091;55.756;37.412;2023-02-19T19:09:27;30.43;;;10.47;;
69034;SDS011;56091;55.756;37.412;2023-02-19T19:14:28;29.95;;;11.93;;
69034;SDS011;56091;55.756;37.412;2023-02-19T19:19:29;31.07;;;11.20;;
69034;SDS011;56091;55.756;37.412;2023-02-19T19:24:29;30.92;;;10.90;;
69034;SDS011;56091;55.756;37.412;2023-02-19T19:29:30;26.45;;;10.50;;
69034;SDS011;56091;55.756;37.412;2023-02-19T19:34:31;30.60;;;11.27;;
69034;SDS011;56091;55.756;37.412;2023-02-19T19:39:32;31.67;;;11.80;;
69034;SDS011;56091;55.756;37.412;2023-02-19T19:44:32;31.17;;;11.23;;
69034;SDS011;56091;55.756;37.412;2023-02-19T19:49:33;29.20;;;10.77;;
69034;SDS011;56091;55.756;37.412;2023-02-19T19:54:34;35.53;;;11.80;;
69034;SDS011;56091;55.756;37.412;2023-02-19T19:59:35;32.40;;;11.63;;
69034;SDS011;56091;55.756;37.412;2023-02-19T20:04:38;29.05;;;10.55;;
69034;SDS011;56091;55.756;37.412;2023-02-19T20:09:40;27.27;;;10.30;;
69034;SDS011;56091;55.756;37.412;2023-02-19T20:14:44;32.20;;;11.47;;
69034;SDS011;56091;55.756;37.412;2023-02-19T20:19:46;31.33;;;11.10;;
69034;SDS011;56091;55.756;37.412;2023-02-19T20:24:50;26.67;;;10.00;;
69034;SDS011;56091;55.756;37.412;2023-02-19T20:29:54;28.70;;;10.75;;
69034;SDS011;56091;55.756;37.412;2023-02-19T20:34:55;40.37;;;11.90;;
69034;SDS011;56091;55.756;37.412;2023-02-19T20:39:57;35.88;;;12.00;;
69034;SDS011;56091;55.756;37.412;2023-02-19T20:44:58;34.53;;;11.03;;
69034;SDS011;56091;55.756;37.412;2023-02-19T20:50:05;34.75;;;10.90;;
69034;SDS011;56091;55.756;37.412;2023-02-19T20:55:07;28.43;;;10.00;;
69034;SDS011;56091;55.756;37.412;2023-02-19T21:00:11;31.08;;;10.60;;
69034;SDS011;56091;55.756;37.412;2023-02-19T21:05:15;35.50;;;11.87;;
69034;SDS011;56091;55.756;37.412;2023-02-19T21:10:16;31.92;;;12.88;;
69034;SDS011;56091;55.756;37.412;2023-02-19T21:15:17;35.43;;;12.37;;
69034;SDS011;56091;55.756;37.412;2023-02-19T21:20:19;32.88;;;12.00;;
69034;SDS011;56091;55.756;37.412;2023-02-19T21:25:20;32.57;;;13.03;;
69034;SDS011;56091;55.756;37.412;2023-02-19T21:30:20;32.28;;;11.10;;
69034;SDS011;56091;55.756;37.412;2023-02-19T21:35:21;31.07;;;10.67;;
69034;SDS011;56091;55.756;37.412;2023-02-19T21:40:22;29.90;;;11.43;;
69034;SDS011;56091;55.756;37.412;2023-02-19T21:45:23;30.00;;;10.60;;
69034;SDS011;56091;55.756;37.412;2023-02-19T21:50:24;37.33;;;13.07;;
69034;SDS011;56091;55.756;37.412;2023-02-19T21:55:25;31.63;;;12.10;;
69034;SDS011;56091;55.756;37.412;2023-02-19T22:00:28;37.87;;;12.97;;
69034;SDS011;56091;55.756;37.412;2023-02-19T22:05:30;40.78;;;13.80;;
69034;SDS011;56091;55.756;37.412;2023-02-19T22:10:31;38.00;;;13.43;;
69034;SDS011;56091;55.756;37.412;2023-02-19T22:15:32;36.95;;;13.77;;
69034;SDS011;56091;55.756;37.412;2023-02-19T22:20:36;34.93;;;13.00;;
69034;SDS011;56091;55.756;37.412;2023-02-19T22:25:38;36.28;;;12.95;;
69034;SDS011;56091;55.756;37.412;2023-02-19T22:30:39;34.67;;;13.07;;
69034;SDS011;56091;55.756;37.412;2023-02-19T22:35:42;35.20;;;12.55;;
69034;SDS011;56091;55.756;37.412;2023-02-19T22:40:42;32.35;;;12.35;;
69034;SDS011;56091;55.756;37.412;2023-02-19T22:45:43;37.43;;;13.03;;
69034;SDS011;56091;55.756;37.412;2023-02-19T22:50:49;39.65;;;14.00;;
69034;SDS011;56091;55.756;37.412;2023-02-19T22:55:50;39.10;;;13.87;;
69034;SDS011;56091;55.756;37.412;2023-02-19T23:00:50;41.75;;;15.00;;
69034;SDS011;56091;55.756;37.412;2023-02-19T23:05:52;41.72;;;13.85;;
69034;SDS011;56091;55.756;37.412;2023-02-19T23:10:53;35.97;;;13.53;;
69034;SDS011;56091;55.756;37.412;2023-02-19T23:15:58;36.67;;;12.75;;
69034;SDS011;56091;55.756;37.412;2023-02-19T23:21:00;40.10;;;13.77;;
69034;SDS011;56091;55.756;37.412;2023-02-19T23:26:01;37.38;;;12.60;;
69034;SDS011;56091;55.756;37.412;2023-02-19T23:31:02;38.80;;;12.77;;
69034;SDS011;56091;55.756;37.412;2023-02-19T23:36:03;34.65;;;14.07;;
69034;SDS011;56091;55.756;37.412;2023-02-19T23:41:09;43.33;;;14.97;;
69034;SDS011;56091;55.756;37.412;2023-02-19T23:46:15;35.95;;;12.45;;
69034;SDS011;56091;55.756;37.412;2023-02-19T23:51:17;40.37;;;13.90;;
69034;SDS011;56091;55.756;37.412;2023-02-19T23:56:25;35.97;;;13.10;;
